sensor_id;sensor_type;location;lat;lon;timestamp;pressure;altitude;pressure_sealevel;temperature;humidity
49979;BME280;35869;50.990;6.962;2023-05-03T00:01:15;102489.25;;;7.60;81.04
49979;BME280;35869;50.990;6.962;2023-05-03T00:06:15;102492.72;;;7.56;81.93
49979;BME280;35869;50.990;6.962;2023-05-03T00:11:16;102489.31;;;7.51;81.86
49979;BME280;35869;50.990;6.962;2023-05-03T00:16:16;102477.22;;;7.43;82.21
49979;BME280;35869;50.990;6.962;2023-05-03T00:21:16;102483.31;;;7.39;81.64
49979;BME280;35869;50.990;6.962;2023-05-03T00:26:16;102466.91;;;7.40;81.72
49979;BME280;35869;50.990;6.962;2023-05-03T00:31:16;102461.78;;;7.24;81.97
49979;BME280;35869;50.990;6.962;2023-05-03T00:36:17;102463.53;;;7.12;82.88
49979;BME280;35869;50.990;6.962;2023-05-03T00:41:17;102472.16;;;7.10;82.72
49979;BME280;35869;50.990;6.962;2023-05-03T00:46:17;102473.03;;;7.01;83.08
49979;BME280;35869;50.990;6.962;2023-05-03T00:51:18;102487.69;;;6.94;83.29
49979;BME280;35869;50.990;6.962;2023-05-03T00:56:19;102486.81;;;6.97;83.11
49979;BME280;35869;50.990;6.962;2023-05-03T01:01:19;102481.63;;;6.91;83.33
49979;BME280;35869;50.990;6.962;2023-05-03T01:12:33;102474.75;;;6.78;83.27
49979;BME280;35869;50.990;6.962;2023-05-03T01:17:49;102474.78;;;6.68;83.83
49979;BME280;35869;50.990;6.962;2023-05-03T01:23:10;102469.59;;;6.62;83.85
49979;BME280;35869;50.990;6.962;2023-05-03T01:28:12;102467.00;;;6.67;83.76
49979;BME280;35869;50.990;6.962;2023-05-03T01:33:16;102473.91;;;6.51;84.45
49979;BME280;35869;50.990;6.962;2023-05-03T01:38:20;102475.66;;;6.57;83.57
49979;BME280;35869;50.990;6.962;2023-05-03T01:43:22;102479.06;;;6.50;83.78
49979;BME280;35869;50.990;6.962;2023-05-03T01:48:23;102471.28;;;6.33;84.92
49979;BME280;35869;50.990;6.962;2023-05-03T01:53:24;102481.63;;;6.31;84.37
49979;BME280;35869;50.990;6.962;2023-05-03T01:58:24;102482.50;;;6.33;84.12
49979;BME280;35869;50.990;6.962;2023-05-03T02:03:24;102491.06;;;6.25;84.49
49979;BME280;35869;50.990;6.962;2023-05-03T02:08:24;102489.38;;;6.28;84.05
49979;BME280;35869;50.990;6.962;2023-05-03T02:13:24;102499.66;;;6.21;84.85
49979;BME280;35869;50.990;6.962;2023-05-03T02:18:25;102496.22;;;6.17;85.45
49979;BME280;35869;50.990;6.962;2023-05-03T02:23:25;102494.50;;;6.14;85.22
49979;BME280;35869;50.990;6.962;2023-05-03T02:28:25;102510.00;;;6.10;85.06
49979;BME280;35869;50.990;6.962;2023-05-03T02:33:25;102511.69;;;6.09;85.72
49979;BME280;35869;50.990;6.962;2023-05-03T02:38:26;102518.56;;;6.00;85.38
49979;BME280;35869;50.990;6.962;2023-05-03T02:43:26;102519.38;;;5.97;85.76
49979;BME280;35869;50.990;6.962;2023-05-03T02:48:26;102521.09;;;5.97;85.44
49979;BME280;35869;50.990;6.962;2023-05-03T02:53:26;102521.91;;;5.86;85.84
49979;BME280;35869;50.990;6.962;2023-05-03T02:58:27;102509.84;;;5.82;86.71
49979;BME280;35869;50.990;6.962;2023-05-03T03:03:27;102511.53;;;5.80;85.79
49979;BME280;35869;50.990;6.962;2023-05-03T03:08:27;102506.34;;;5.73;85.95
49979;BME280;35869;50.990;6.962;2023-05-03T03:13:27;102502.03;;;5.69;86.08
49979;BME280;35869;50.990;6.962;2023-05-03T03:18:28;102496.91;;;5.72;85.52
49979;BME280;35869;50.990;6.962;2023-05-03T03:23:28;102495.16;;;5.68;85.75
49979;BME280;35869;50.990;6.962;2023-05-03T03:28:29;102490.81;;;5.60;86.21
49979;BME280;35869;50.990;6.962;2023-05-03T03:33:29;102486.53;;;5.59;85.68
49979;BME280;35869;50.990;6.962;2023-05-03T03:38:29;102483.91;;;5.55;86.14
49979;BME280;35869;50.990;6.962;2023-05-03T03:43:30;102481.31;;;5.50;86.58
49979;BME280;35869;50.990;6.962;2023-05-03T03:48:30;102481.31;;;5.47;86.83
49979;BME280;35869;50.990;6.962;2023-05-03T03:53:30;102476.94;;;5.39;86.84
49979;BME280;35869;50.990;6.962;2023-05-03T03:58:30;102480.44;;;5.42;87.04
49979;BME280;35869;50.990;6.962;2023-05-03T04:03:31;102473.56;;;5.40;87.06
49979;BME280;35869;50.990;6.962;2023-05-03T04:08:31;102478.72;;;5.40;87.08
49979;BME280;35869;50.990;6.962;2023-05-03T04:13:31;102472.66;;;5.38;86.92
49979;BME280;35869;50.990;6.962;2023-05-03T04:18:32;102466.56;;;5.26;87.76
49979;BME280;35869;50.990;6.962;2023-05-03T04:23:32;102453.72;;;5.31;87.44
49979;BME280;35869;50.990;6.962;2023-05-03T04:28:32;102450.22;;;5.21;86.99
49979;BME280;35869;50.990;6.962;2023-05-03T04:33:32;102455.34;;;5.12;87.69
49979;BME280;35869;50.990;6.962;2023-05-03T04:38:33;102462.22;;;5.13;86.79
49979;BME280;35869;50.990;6.962;2023-05-03T04:43:33;102478.53;;;5.15;87.13
49979;BME280;35869;50.990;6.962;2023-05-03T04:48:33;102482.84;;;5.15;86.93
49979;BME280;35869;50.990;6.962;2023-05-03T04:53:34;102498.28;;;5.13;87.42
49979;BME280;35869;50.990;6.962;2023-05-03T04:58:34;102503.44;;;5.10;87.08
49979;BME280;35869;50.990;6.962;2023-05-03T05:03:34;102509.47;;;5.12;86.57
49979;BME280;35869;50.990;6.962;2023-05-03T05:08:34;102506.88;;;5.14;85.78
49979;BME280;35869;50.990;6.962;2023-05-03T05:13:38;102501.69;;;5.06;86.18
49979;BME280;35869;50.990;6.962;2023-05-03T05:18:38;102506.81;;;5.01;86.28
49979;BME280;35869;50.990;6.962;2023-05-03T05:23:38;102505.06;;;4.99;85.95
49979;BME280;35869;50.990;6.962;2023-05-03T05:28:52;102507.69;;;5.05;85.03
49979;BME280;35869;50.990;6.962;2023-05-03T05:33:55;102514.53;;;5.00;82.90
49979;BME280;35869;50.990;6.962;2023-05-03T05:38:59;102531.66;;;4.95;83.84
49979;BME280;35869;50.990;6.962;2023-05-03T05:44:02;102543.72;;;4.99;82.46
49979;BME280;35869;50.990;6.962;2023-05-03T05:49:02;102548.84;;;4.96;82.28
49979;BME280;35869;50.990;6.962;2023-05-03T05:54:07;102554.00;;;4.96;81.69
49979;BME280;35869;50.990;6.962;2023-05-03T05:59:07;102547.16;;;4.99;81.69
49979;BME280;35869;50.990;6.962;2023-05-03T06:04:11;102547.16;;;5.01;81.78
49979;BME280;35869;50.990;6.962;2023-05-03T06:09:15;102547.25;;;5.10;81.63
49979;BME280;35869;50.990;6.962;2023-05-03T06:14:18;102554.13;;;5.11;81.03
49979;BME280;35869;50.990;6.962;2023-05-03T06:19:19;102564.44;;;5.16;81.15
49979;BME280;35869;50.990;6.962;2023-05-03T06:24:23;102560.25;;;5.25;81.21
49979;BME280;35869;50.990;6.962;2023-05-03T06:29:23;102555.13;;;5.31;81.18
49979;BME280;35869;50.990;6.962;2023-05-03T06:34:24;102558.63;;;5.40;80.97
49979;BME280;35869;50.990;6.962;2023-05-03T06:39:55;102559.53;;;5.48;81.22
49979;BME280;35869;50.990;6.962;2023-05-03T06:44:55;102568.22;;;5.59;80.26
49979;BME280;35869;50.990;6.962;2023-05-03T06:49:55;102563.09;;;5.65;80.63
49979;BME280;35869;50.990;6.962;2023-05-03T07:00:43;102554.66;;;5.94;80.19
49979;BME280;35869;50.990;6.962;2023-05-03T07:06:15;102556.44;;;6.07;80.89
49979;BME280;35869;50.990;6.962;2023-05-03T07:11:18;102555.63;;;6.26;79.68
49979;BME280;35869;50.990;6.962;2023-05-03T07:16:21;102554.78;;;6.30;80.30
49979;BME280;35869;50.990;6.962;2023-05-03T07:21:24;102545.38;;;6.55;79.45
49979;BME280;35869;50.990;6.962;2023-05-03T07:26:25;102548.84;;;6.77;79.03
49979;BME280;35869;50.990;6.962;2023-05-03T07:31:25;102548.84;;;6.95;76.87
49979;BME280;35869;50.990;6.962;2023-05-03T07:36:31;102549.72;;;7.13;78.26
49979;BME280;35869;50.990;6.962;2023-05-03T07:41:37;102521.22;;;7.27;77.67
49979;BME280;35869;50.990;6.962;2023-05-03T07:52:07;102517.72;;;7.60;76.81
49979;BME280;35869;50.990;6.962;2023-05-03T07:57:10;102502.91;;;7.95;70.27
49979;BME280;35869;50.990;6.962;2023-05-03T08:02:11;102497.59;;;8.20;71.60
49979;BME280;35869;50.990;6.962;2023-05-03T08:07:11;102488.16;;;8.16;73.01
49979;BME280;35869;50.990;6.962;2023-05-03T08:12:11;102495.81;;;8.33;73.22
49979;BME280;35869;50.990;6.962;2023-05-03T08:17:11;102491.31;;;8.59;68.01
49979;BME280;35869;50.990;6.962;2023-05-03T08:22:12;102497.28;;;8.72;69.35
49979;BME280;35869;50.990;6.962;2023-05-03T08:27:12;102500.50;;;9.00;68.07
49979;BME280;35869;50.990;6.962;2023-05-03T08:32:12;102491.75;;;9.10;66.21
49979;BME280;35869;50.990;6.962;2023-05-03T08:37:12;102489.00;;;9.25;69.02
49979;BME280;35869;50.990;6.962;2023-05-03T08:42:12;102483.75;;;9.33;69.71
49979;BME280;35869;50.990;6.962;2023-05-03T08:47:14;102486.97;;;9.53;68.02
49979;BME280;35869;50.990;6.962;2023-05-03T08:52:14;102484.22;;;9.66;67.26
49979;BME280;35869;50.990;6.962;2023-05-03T08:57:15;102477.31;;;9.65;70.75
49979;BME280;35869;50.990;6.962;2023-05-03T09:02:16;102468.19;;;9.99;68.09
49979;BME280;35869;50.990;6.962;2023-05-03T09:07:16;102470.59;;;10.13;67.19
49979;BME280;35869;50.990;6.962;2023-05-03T09:12:32;102471.31;;;10.26;65.88
49979;BME280;35869;50.990;6.962;2023-05-03T09:17:33;102464.81;;;10.53;63.97
49979;BME280;35869;50.990;6.962;2023-05-03T09:22:33;102466.72;;;10.45;62.68
49979;BME280;35869;50.990;6.962;2023-05-03T09:27:33;102450.53;;;10.80;65.12
49979;BME280;35869;50.990;6.962;2023-05-03T09:32:46;102450.81;;;11.11;63.75
49979;BME280;35869;50.990;6.962;2023-05-03T09:37:46;102449.75;;;11.21;64.93
49979;BME280;35869;50.990;6.962;2023-05-03T09:43:05;102442.88;;;11.62;60.89
49979;BME280;35869;50.990;6.962;2023-05-03T09:48:06;102433.50;;;11.93;59.91
49979;BME280;35869;50.990;6.962;2023-05-03T09:53:06;102429.28;;;12.25;61.74
49979;BME280;35869;50.990;6.962;2023-05-03T09:58:07;102425.47;;;12.40;59.88
49979;BME280;35869;50.990;6.962;2023-05-03T10:03:08;102422.97;;;12.69;61.52
49979;BME280;35869;50.990;6.962;2023-05-03T10:08:11;102408.16;;;13.04;58.48
49979;BME280;35869;50.990;6.962;2023-05-03T10:13:15;102410.09;;;13.58;58.59
49979;BME280;35869;50.990;6.962;2023-05-03T10:18:17;102389.09;;;13.89;60.30
49979;BME280;35869;50.990;6.962;2023-05-03T10:23:19;102378.75;;;14.14;55.18
49979;BME280;35869;50.990;6.962;2023-05-03T10:28:19;102376.47;;;14.56;57.59
49979;BME280;35869;50.990;6.962;2023-05-03T10:38:26;102378.66;;;15.17;59.33
49979;BME280;35869;50.990;6.962;2023-05-03T10:48:31;102371.66;;;15.86;54.60
49979;BME280;35869;50.990;6.962;2023-05-03T10:58:34;102349.56;;;16.34;57.89
49979;BME280;35869;50.990;6.962;2023-05-03T11:08:47;102350.50;;;16.53;61.78
49979;BME280;35869;50.990;6.962;2023-05-03T11:13:49;102349.19;;;17.03;54.44
49979;BME280;35869;50.990;6.962;2023-05-03T11:18:50;102347.13;;;16.91;62.58
49979;BME280;35869;50.990;6.962;2023-05-03T11:23:50;102328.03;;;17.25;58.44
49979;BME280;35869;50.990;6.962;2023-05-03T11:28:52;102328.44;;;17.72;48.31
49979;BME280;35869;50.990;6.962;2023-05-03T11:33:52;102327.78;;;18.03;52.90
49979;BME280;35869;50.990;6.962;2023-05-03T11:38:53;102318.91;;;17.51;61.07
49979;BME280;35869;50.990;6.962;2023-05-03T11:43:53;102306.72;;;17.31;57.48
49979;BME280;35869;50.990;6.962;2023-05-03T11:48:53;102308.50;;;18.20;52.52
49979;BME280;35869;50.990;6.962;2023-05-03T11:53:54;102305.22;;;18.67;50.71
49979;BME280;35869;50.990;6.962;2023-05-03T11:58:56;102299.47;;;18.59;55.11
49979;BME280;35869;50.990;6.962;2023-05-03T12:04:01;102290.59;;;18.44;56.06
49979;BME280;35869;50.990;6.962;2023-05-03T12:09:03;102286.81;;;18.99;50.06
49979;BME280;35869;50.990;6.962;2023-05-03T12:14:03;102286.63;;;18.86;59.61
49979;BME280;35869;50.990;6.962;2023-05-03T12:19:03;102276.94;;;19.34;52.16
49979;BME280;35869;50.990;6.962;2023-05-03T12:24:03;102263.56;;;19.68;47.39
49979;BME280;35869;50.990;6.962;2023-05-03T12:29:04;102256.16;;;20.05;45.93
49979;BME280;35869;50.990;6.962;2023-05-03T12:34:04;102256.88;;;20.07;44.18
49979;BME280;35869;50.990;6.962;2023-05-03T12:39:04;102257.41;;;19.84;46.86
49979;BME280;35869;50.990;6.962;2023-05-03T12:44:04;102245.38;;;20.08;50.11
49979;BME280;35869;50.990;6.962;2023-05-03T12:49:05;102242.22;;;20.46;41.93
49979;BME280;35869;50.990;6.962;2023-05-03T12:54:05;102229.44;;;20.10;49.96
49979;BME280;35869;50.990;6.962;2023-05-03T12:59:05;102224.59;;;20.61;41.28
49979;BME280;35869;50.990;6.962;2023-05-03T13:04:05;102212.13;;;20.63;44.16
49979;BME280;35869;50.990;6.962;2023-05-03T13:09:05;102205.69;;;20.38;54.32
49979;BME280;35869;50.990;6.962;2023-05-03T13:14:06;102193.34;;;20.67;52.20
49979;BME280;35869;50.990;6.962;2023-05-03T13:19:06;102184.69;;;21.19;44.87
49979;BME280;35869;50.990;6.962;2023-05-03T13:24:06;102176.28;;;21.00;47.22
49979;BME280;35869;50.990;6.962;2023-05-03T13:29:06;102176.13;;;20.89;45.00
49979;BME280;35869;50.990;6.962;2023-05-03T13:34:07;102169.94;;;21.29;43.15
49979;BME280;35869;50.990;6.962;2023-05-03T13:39:07;102164.69;;;21.15;40.60
49979;BME280;35869;50.990;6.962;2023-05-03T13:44:08;102162.22;;;21.39;44.01
49979;BME280;35869;50.990;6.962;2023-05-03T13:49:08;102146.91;;;21.44;45.23
49979;BME280;35869;50.990;6.962;2023-05-03T13:54:09;102145.69;;;20.69;53.13
49979;BME280;35869;50.990;6.962;2023-05-03T13:59:11;102133.19;;;20.30;51.68
49979;BME280;35869;50.990;6.962;2023-05-03T14:04:11;102120.50;;;21.17;42.55
49979;BME280;35869;50.990;6.962;2023-05-03T14:09:11;102123.16;;;20.90;45.95
49979;BME280;35869;50.990;6.962;2023-05-03T14:14:12;102105.91;;;20.85;42.09
49979;BME280;35869;50.990;6.962;2023-05-03T14:19:12;102104.22;;;20.42;51.89
49979;BME280;35869;50.990;6.962;2023-05-03T14:24:12;102095.34;;;20.85;50.28
49979;BME280;35869;50.990;6.962;2023-05-03T14:29:12;102082.41;;;21.07;40.06
49979;BME280;35869;50.990;6.962;2023-05-03T14:34:12;102082.00;;;20.86;38.40
49979;BME280;35869;50.990;6.962;2023-05-03T14:39:13;102069.28;;;20.66;44.64
49979;BME280;35869;50.990;6.962;2023-05-03T14:44:13;102071.78;;;20.82;41.29
49979;BME280;35869;50.990;6.962;2023-05-03T14:49:13;102051.53;;;20.81;48.71
49979;BME280;35869;50.990;6.962;2023-05-03T14:54:13;102050.53;;;20.96;41.75
49979;BME280;35869;50.990;6.962;2023-05-03T14:59:14;102047.06;;;20.68;50.54
49979;BME280;35869;50.990;6.962;2023-05-03T15:04:14;102042.31;;;20.61;48.10
49979;BME280;35869;50.990;6.962;2023-05-03T15:09:14;102046.06;;;20.84;48.09
49979;BME280;35869;50.990;6.962;2023-05-03T15:14:14;102038.88;;;20.86;40.38
49979;BME280;35869;50.990;6.962;2023-05-03T15:19:14;102032.25;;;20.53;50.10
49979;BME280;35869;50.990;6.962;2023-05-03T15:24:18;102034.97;;;20.52;42.36
49979;BME280;35869;50.990;6.962;2023-05-03T15:29:18;102023.44;;;20.26;41.86
49979;BME280;35869;50.990;6.962;2023-05-03T15:34:18;102029.06;;;20.48;42.21
49979;BME280;35869;50.990;6.962;2023-05-03T15:39:18;102030.44;;;20.39;48.30
49979;BME280;35869;50.990;6.962;2023-05-03T15:44:19;102027.81;;;20.39;40.91
49979;BME280;35869;50.990;6.962;2023-05-03T15:49:19;102028.53;;;20.29;47.05
49979;BME280;35869;50.990;6.962;2023-05-03T15:54:19;102020.84;;;20.11;52.55
49979;BME280;35869;50.990;6.962;2023-05-03T15:59:19;102019.72;;;20.01;50.97
49979;BME280;35869;50.990;6.962;2023-05-03T16:04:19;102016.31;;;19.99;49.76
49979;BME280;35869;50.990;6.962;2023-05-03T16:09:21;102009.56;;;19.95;47.82
49979;BME280;35869;50.990;6.962;2023-05-03T16:14:21;102005.22;;;19.80;45.93
49979;BME280;35869;50.990;6.962;2023-05-03T16:19:21;102002.41;;;19.68;48.51
49979;BME280;35869;50.990;6.962;2023-05-03T16:24:21;102003.72;;;19.47;51.52
49979;BME280;35869;50.990;6.962;2023-05-03T16:29:21;102000.13;;;19.48;51.59
49979;BME280;35869;50.990;6.962;2023-05-03T16:34:22;101998.44;;;19.33;48.67
49979;BME280;35869;50.990;6.962;2023-05-03T16:39:22;101989.00;;;19.00;51.45
49979;BME280;35869;50.990;6.962;2023-05-03T16:44:22;101989.38;;;19.08;45.50
49979;BME280;35869;50.990;6.962;2023-05-03T16:49:22;101986.53;;;18.97;49.34
49979;BME280;35869;50.990;6.962;2023-05-03T16:54:23;101981.41;;;18.80;54.18
49979;BME280;35869;50.990;6.962;2023-05-03T16:59:23;101986.88;;;18.61;57.41
49979;BME280;35869;50.990;6.962;2023-05-03T17:04:23;101977.94;;;18.63;46.29
49979;BME280;35869;50.990;6.962;2023-05-03T17:09:23;101979.09;;;18.44;50.87
49979;BME280;35869;50.990;6.962;2023-05-03T17:14:23;101973.63;;;18.47;49.26
49979;BME280;35869;50.990;6.962;2023-05-03T17:19:24;101975.38;;;18.32;49.76
49979;BME280;35869;50.990;6.962;2023-05-03T17:24:24;101962.31;;;18.30;48.92
49979;BME280;35869;50.990;6.962;2023-05-03T17:29:24;101968.41;;;17.99;55.67
49979;BME280;35869;50.990;6.962;2023-05-03T17:34:24;101967.91;;;17.93;56.39
49979;BME280;35869;50.990;6.962;2023-05-03T17:39:24;101967.66;;;17.81;52.34
49979;BME280;35869;50.990;6.962;2023-05-03T17:44:25;101959.25;;;17.75;52.05
49979;BME280;35869;50.990;6.962;2023-05-03T17:49:25;101962.69;;;17.59;55.07
49979;BME280;35869;50.990;6.962;2023-05-03T17:54:28;101974.63;;;17.49;56.93
49979;BME280;35869;50.990;6.962;2023-05-03T17:59:28;101972.91;;;17.32;57.54
49979;BME280;35869;50.990;6.962;2023-05-03T18:04:28;101966.66;;;17.18;58.31
49979;BME280;35869;50.990;6.962;2023-05-03T18:09:29;101973.78;;;17.16;56.65
49979;BME280;35869;50.990;6.962;2023-05-03T18:14:29;101973.66;;;17.01;57.67
49979;BME280;35869;50.990;6.962;2023-05-03T18:19:29;101979.03;;;16.81;55.17
49979;BME280;35869;50.990;6.962;2023-05-03T18:24:29;101987.59;;;16.67;57.11
49979;BME280;35869;50.990;6.962;2023-05-03T18:29:30;101974.34;;;16.51;59.87
49979;BME280;35869;50.990;6.962;2023-05-03T18:34:30;101985.31;;;16.42;59.31
49979;BME280;35869;50.990;6.962;2023-05-03T18:39:30;101993.16;;;16.25;54.15
49979;BME280;35869;50.990;6.962;2023-05-03T18:44:31;101995.44;;;16.14;52.78
49979;BME280;35869;50.990;6.962;2023-05-03T18:49:31;101996.34;;;15.94;57.60
49979;BME280;35869;50.990;6.962;2023-05-03T18:54:31;101992.88;;;15.75;53.98
49979;BME280;35869;50.990;6.962;2023-05-03T18:59:31;101991.19;;;15.73;54.22
49979;BME280;35869;50.990;6.962;2023-05-03T19:04:32;102003.25;;;15.57;58.78
49979;BME280;35869;50.990;6.962;2023-05-03T19:09:32;101996.66;;;15.49;60.38
49979;BME280;35869;50.990;6.962;2023-05-03T19:14:36;102003.13;;;15.40;61.23
49979;BME280;35869;50.990;6.962;2023-05-03T19:19:37;102002.09;;;15.24;62.22
49979;BME280;35869;50.990;6.962;2023-05-03T19:24:37;102003.03;;;15.02;61.57
49979;BME280;35869;50.990;6.962;2023-05-03T19:29:37;102007.53;;;14.99;62.01
49979;BME280;35869;50.990;6.962;2023-05-03T19:34:37;102007.28;;;14.84;63.32
49979;BME280;35869;50.990;6.962;2023-05-03T19:39:38;102015.88;;;14.66;58.68
49979;BME280;35869;50.990;6.962;2023-05-03T19:44:38;102013.56;;;14.58;62.76
49979;BME280;35869;50.990;6.962;2023-05-03T19:49:38;101999.25;;;14.45;63.73
49979;BME280;35869;50.990;6.962;2023-05-03T19:54:38;102005.97;;;14.29;60.23
49979;BME280;35869;50.990;6.962;2023-05-03T19:59:38;101994.91;;;14.22;62.13
49979;BME280;35869;50.990;6.962;2023-05-03T20:04:39;102001.72;;;14.04;61.07
49979;BME280;35869;50.990;6.962;2023-05-03T20:09:39;102000.25;;;13.97;61.07
49979;BME280;35869;50.990;6.962;2023-05-03T20:14:39;102005.31;;;13.78;61.33
49979;BME280;35869;50.990;6.962;2023-05-03T20:19:39;102013.25;;;13.75;64.20
49979;BME280;35869;50.990;6.962;2023-05-03T20:24:40;102006.63;;;13.67;64.94
49979;BME280;35869;50.990;6.962;2023-05-03T20:29:40;102002.78;;;13.52;62.39
49979;BME280;35869;50.990;6.962;2023-05-03T20:34:40;102000.53;;;13.43;64.78
49979;BME280;35869;50.990;6.962;2023-05-03T20:39:40;102006.00;;;13.35;65.01
49979;BME280;35869;50.990;6.962;2023-05-03T20:44:40;102002.16;;;13.20;65.57
49979;BME280;35869;50.990;6.962;2023-05-03T20:49:40;102008.44;;;13.15;64.75
49979;BME280;35869;50.990;6.962;2023-05-03T20:54:41;102006.28;;;13.01;64.76
49979;BME280;35869;50.990;6.962;2023-05-03T20:59:42;102007.66;;;12.86;65.12
49979;BME280;35869;50.990;6.962;2023-05-03T21:04:42;102007.03;;;12.78;65.40
49979;BME280;35869;50.990;6.962;2023-05-03T21:09:43;102006.59;;;12.65;65.96
49979;BME280;35869;50.990;6.962;2023-05-03T21:14:43;102010.34;;;12.57;66.20
49979;BME280;35869;50.990;6.962;2023-05-03T21:19:43;101997.66;;;12.46;66.50
49979;BME280;35869;50.990;6.962;2023-05-03T21:24:43;101996.41;;;12.30;67.00
49979;BME280;35869;50.990;6.962;2023-05-03T21:29:43;102013.03;;;12.27;66.72
49979;BME280;35869;50.990;6.962;2023-05-03T21:34:44;101994.25;;;12.16;67.09
49979;BME280;35869;50.990;6.962;2023-05-03T21:39:45;101992.06;;;12.02;67.48
49979;BME280;35869;50.990;6.962;2023-05-03T21:44:47;101987.97;;;11.93;68.14
49979;BME280;35869;50.990;6.962;2023-05-03T21:49:47;101982.13;;;11.85;68.00
49979;BME280;35869;50.990;6.962;2023-05-03T21:54:47;101978.09;;;11.73;68.54
49979;BME280;35869;50.990;6.962;2023-05-03T21:59:48;101976.66;;;11.63;68.70
49979;BME280;35869;50.990;6.962;2023-05-03T22:04:48;101969.09;;;11.54;69.29
49979;BME280;35869;50.990;6.962;2023-05-03T22:09:49;101969.28;;;11.48;69.50
49979;BME280;35869;50.990;6.962;2023-05-03T22:14:49;101967.91;;;11.35;70.20
49979;BME280;35869;50.990;6.962;2023-05-03T22:19:49;101967.22;;;11.28;69.85
49979;BME280;35869;50.990;6.962;2023-05-03T22:24:49;101972.66;;;11.20;70.25
49979;BME280;35869;50.990;6.962;2023-05-03T22:29:49;101979.44;;;11.26;70.22
49979;BME280;35869;50.990;6.962;2023-05-03T22:34:50;101971.91;;;11.15;71.00
49979;BME280;35869;50.990;6.962;2023-05-03T22:39:50;101972.16;;;11.06;71.09
49979;BME280;35869;50.990;6.962;2023-05-03T22:44:50;101970.59;;;10.99;71.54
49979;BME280;35869;50.990;6.962;2023-05-03T22:49:50;101975.13;;;10.92;71.68
49979;BME280;35869;50.990;6.962;2023-05-03T22:54:54;101971.88;;;10.83;72.41
49979;BME280;35869;50.990;6.962;2023-05-03T22:59:54;101974.47;;;10.83;71.42
49979;BME280;35869;50.990;6.962;2023-05-03T23:04:54;101971.44;;;10.65;73.06
49979;BME280;35869;50.990;6.962;2023-05-03T23:10:02;101961.19;;;10.59;73.38
49979;BME280;35869;50.990;6.962;2023-05-03T23:15:03;101961.25;;;10.58;72.53
49979;BME280;35869;50.990;6.962;2023-05-03T23:20:03;101957.84;;;10.54;73.08
49979;BME280;35869;50.990;6.962;2023-05-03T23:25:04;101959.13;;;10.38;73.74
49979;BME280;35869;50.990;6.962;2023-05-03T23:30:05;101948.88;;;10.32;73.65
49979;BME280;35869;50.990;6.962;2023-05-03T23:51:58;101937.28;;;10.06;74.65
49979;BME280;35869;50.990;6.962;2023-05-03T23:56:59;101936.50;;;10.04;74.68
